createdAt,value
2022-12-31T00:01:08.663Z,55.20
2022-12-31T00:03:39.513Z,55.50
2022-12-31T00:06:15.967Z,53.13
2022-12-31T00:08:44.939Z,48.93
2022-12-31T00:11:13.545Z,46.93
2022-12-31T00:13:43.228Z,41.20
2022-12-31T00:16:16.606Z,38.57
2022-12-31T00:18:47.967Z,43.20
2022-12-31T00:21:17.490Z,35.70
2022-12-31T00:23:46.519Z,32.17
2022-12-31T00:26:17.693Z,28.43
2022-12-31T00:28:46.523Z,28.50
2022-12-31T00:31:17.579Z,27.17
2022-12-31T00:33:47.965Z,29.10
2022-12-31T00:36:19.243Z,24.93
2022-12-31T00:38:49.345Z,25.20
2022-12-31T00:41:19.275Z,24.33
2022-12-31T00:43:48.576Z,24.57
2022-12-31T00:46:18.050Z,23.53
2022-12-31T00:48:48.692Z,24.37
2022-12-31T00:51:22.469Z,22.40
2022-12-31T00:53:51.065Z,24.27
2022-12-31T00:56:22.255Z,22.37
2022-12-31T00:58:51.340Z,28.10
2022-12-31T01:01:22.512Z,28.77
2022-12-31T01:03:55.380Z,30.57
2022-12-31T01:06:24.390Z,30.83
2022-12-31T01:08:55.757Z,26.83
2022-12-31T01:11:29.427Z,25.37
2022-12-31T01:13:59.897Z,25.53
2022-12-31T01:16:30.735Z,27.87
2022-12-31T01:19:02.181Z,23.47
2022-12-31T01:21:31.411Z,25.63
2022-12-31T01:24:00.614Z,23.90
2022-12-31T01:26:29.809Z,23.57
2022-12-31T01:28:58.704Z,27.37
2022-12-31T01:31:27.921Z,27.03
2022-12-31T01:33:56.553Z,23.40
2022-12-31T01:36:29.307Z,24.67
2022-12-31T01:38:59.712Z,22.80
2022-12-31T01:41:31.193Z,24.40
2022-12-31T01:44:01.943Z,24.60
2022-12-31T01:46:37.195Z,24.20
2022-12-31T01:49:11.256Z,22.67
2022-12-31T01:51:45.175Z,26.60
2022-12-31T01:54:16.322Z,22.73
2022-12-31T01:56:46.935Z,22.50
2022-12-31T01:59:18.853Z,21.93
2022-12-31T02:01:49.059Z,21.57
2022-12-31T02:04:18.283Z,22.60
2022-12-31T02:06:53.336Z,23.07
2022-12-31T02:09:22.065Z,21.87
2022-12-31T02:11:50.623Z,23.53
2022-12-31T02:14:22.363Z,21.97
2022-12-31T02:16:57.332Z,21.03
2022-12-31T02:19:50.540Z,21.93
2022-12-31T02:22:30.921Z,21.87
2022-12-31T02:25:19.273Z,20.20
2022-12-31T02:27:58.251Z,21.27
2022-12-31T02:30:32.134Z,22.57
2022-12-31T02:33:10.549Z,23.73
2022-12-31T02:35:47.133Z,23.57
2022-12-31T02:38:19.804Z,22.63
2022-12-31T02:40:49.056Z,23.63
2022-12-31T02:43:17.542Z,23.43
2022-12-31T02:45:51.694Z,23.23
2022-12-31T02:48:32.847Z,22.20
2022-12-31T02:51:13.716Z,22.87
2022-12-31T02:54:11.267Z,21.30
2022-12-31T02:56:46.719Z,24.07
2022-12-31T02:59:53.620Z,29.97
2022-12-31T03:02:25.188Z,29.63
2022-12-31T03:04:56.126Z,32.27
2022-12-31T03:07:26.754Z,29.87
2022-12-31T03:09:55.507Z,28.00
2022-12-31T03:12:44.511Z,27.13
2022-12-31T03:15:21.209Z,29.07
2022-12-31T03:17:57.263Z,26.20
2022-12-31T03:20:46.285Z,25.53
2022-12-31T03:23:17.599Z,26.23
2022-12-31T03:25:45.353Z,31.97
2022-12-31T03:28:16.033Z,28.70
2022-12-31T03:30:47.712Z,23.07
2022-12-31T03:33:18.662Z,22.07
2022-12-31T03:35:48.914Z,22.10
2022-12-31T03:38:18.423Z,21.10
2022-12-31T03:40:48.972Z,24.20
2022-12-31T03:43:19.372Z,20.03
2022-12-31T03:45:51.454Z,22.23
2022-12-31T03:48:22.565Z,21.90
2022-12-31T03:50:51.475Z,22.37
2022-12-31T03:53:20.267Z,20.77
2022-12-31T03:55:52.467Z,22.53
2022-12-31T03:58:21.326Z,24.47
2022-12-31T04:00:49.987Z,22.13
2022-12-31T04:03:20.225Z,22.07
2022-12-31T04:05:54.629Z,20.33
2022-12-31T04:08:23.171Z,21.33
2022-12-31T04:10:51.720Z,19.17
2022-12-31T04:13:21.275Z,20.40
2022-12-31T04:15:52.060Z,18.57
2022-12-31T04:18:22.072Z,19.80
2022-12-31T04:20:50.607Z,19.10
2022-12-31T04:23:19.215Z,19.93
2022-12-31T04:25:47.799Z,18.37
2022-12-31T04:28:16.344Z,20.13
2022-12-31T04:30:45.373Z,19.20
2022-12-31T04:33:13.896Z,17.87
2022-12-31T04:35:43.756Z,20.07
2022-12-31T04:38:12.314Z,17.80
2022-12-31T04:41:00.878Z,19.17
2022-12-31T04:43:29.494Z,18.10
2022-12-31T04:45:58.044Z,19.27
2022-12-31T04:48:26.600Z,19.53
2022-12-31T04:50:56.578Z,19.53
2022-12-31T04:53:25.155Z,18.73
2022-12-31T04:55:53.841Z,17.53
2022-12-31T04:58:22.460Z,17.50
2022-12-31T05:00:54.757Z,18.90
2022-12-31T05:03:26.330Z,17.53
2022-12-31T05:06:02.871Z,17.67
2022-12-31T05:08:31.885Z,17.93
2022-12-31T05:11:00.474Z,18.90
2022-12-31T05:13:33.145Z,19.17
2022-12-31T05:16:02.418Z,19.00
2022-12-31T05:18:31.716Z,21.07
2022-12-31T05:21:02.022Z,20.53
2022-12-31T05:23:30.784Z,18.93
2022-12-31T05:26:00.537Z,19.43
2022-12-31T05:28:29.379Z,21.43
2022-12-31T05:30:57.989Z,21.57
2022-12-31T05:33:26.502Z,20.87
2022-12-31T05:35:55.033Z,19.77
2022-12-31T05:38:25.212Z,19.53
2022-12-31T05:41:01.400Z,17.37
2022-12-31T05:43:30.058Z,15.70
2022-12-31T05:46:01.179Z,17.47
2022-12-31T05:48:30.449Z,15.27
2022-12-31T05:50:59.155Z,14.07
2022-12-31T05:53:29.105Z,13.53
2022-12-31T05:55:57.718Z,14.50
2022-12-31T05:58:27.500Z,14.53
2022-12-31T06:00:56.111Z,17.13
2022-12-31T06:03:24.724Z,13.70
2022-12-31T06:05:53.321Z,16.93
2022-12-31T06:08:21.791Z,15.37
2022-12-31T06:10:51.734Z,14.87
2022-12-31T06:13:20.245Z,15.83
2022-12-31T06:15:48.756Z,18.63
2022-12-31T06:18:17.305Z,18.07
2022-12-31T06:20:45.838Z,18.53
2022-12-31T06:23:14.416Z,17.50
2022-12-31T06:25:43.002Z,16.50
2022-12-31T06:28:19.826Z,16.07
2022-12-31T06:30:49.163Z,16.50
2022-12-31T06:33:17.711Z,16.67
2022-12-31T06:35:46.175Z,16.33
2022-12-31T06:38:14.673Z,17.70
2022-12-31T06:40:44.573Z,17.57
2022-12-31T06:43:14.474Z,18.67
2022-12-31T06:45:42.949Z,18.17
2022-12-31T06:48:11.507Z,19.03
2022-12-31T06:50:40.356Z,18.30
2022-12-31T06:53:08.952Z,19.67
2022-12-31T06:55:40.632Z,22.63
2022-12-31T06:58:13.066Z,24.23
2022-12-31T07:00:51.785Z,26.90
2022-12-31T07:03:32.194Z,23.07
2022-12-31T07:06:08.025Z,20.30
2022-12-31T07:08:46.322Z,20.20
2022-12-31T07:11:21.983Z,19.40
2022-12-31T07:14:03.422Z,20.40
2022-12-31T07:16:42.808Z,23.30
2022-12-31T07:19:25.913Z,23.80
2022-12-31T07:21:57.132Z,24.30
2022-12-31T07:24:26.163Z,26.03
2022-12-31T07:27:11.363Z,22.60
2022-12-31T07:29:57.932Z,22.80
2022-12-31T07:32:40.477Z,26.33
2022-12-31T07:35:16.297Z,26.50
2022-12-31T07:37:50.663Z,26.33
2022-12-31T07:40:26.023Z,25.27
2022-12-31T07:43:08.603Z,24.73
2022-12-31T07:45:47.143Z,28.67
2022-12-31T07:48:24.464Z,34.27
2022-12-31T07:50:54.943Z,27.77
2022-12-31T07:53:24.554Z,25.63
2022-12-31T07:55:56.691Z,24.70
2022-12-31T07:58:33.557Z,23.60
2022-12-31T08:01:03.086Z,25.50
2022-12-31T08:03:46.477Z,23.20
2022-12-31T08:06:23.633Z,32.67
2022-12-31T08:09:00.118Z,31.70
2022-12-31T08:11:37.047Z,28.00
2022-12-31T08:14:09.883Z,24.47
2022-12-31T08:16:39.042Z,24.33
2022-12-31T08:19:18.360Z,25.47
2022-12-31T08:21:57.768Z,28.27
2022-12-31T08:24:38.063Z,27.87
2022-12-31T08:27:11.493Z,27.00
2022-12-31T08:29:47.501Z,26.23
2022-12-31T08:32:23.046Z,26.97
2022-12-31T08:34:59.608Z,28.70
2022-12-31T08:37:37.060Z,27.50
2022-12-31T08:40:21.592Z,27.77
2022-12-31T08:43:12.777Z,28.47
2022-12-31T08:45:47.766Z,28.17
2022-12-31T08:48:27.607Z,27.00
2022-12-31T08:50:59.362Z,26.87
2022-12-31T08:53:28.508Z,25.03
2022-12-31T08:56:04.144Z,25.53
2022-12-31T08:58:44.625Z,26.17
2022-12-31T09:01:19.166Z,26.87
2022-12-31T09:04:07.413Z,23.97
2022-12-31T09:06:43.898Z,24.80
2022-12-31T09:09:21.863Z,47.53
2022-12-31T09:11:58.544Z,35.23
2022-12-31T09:14:45.218Z,26.23
2022-12-31T09:17:45.630Z,25.93
2022-12-31T09:20:36.303Z,25.47
2022-12-31T09:23:16.179Z,25.30
2022-12-31T09:25:57.403Z,27.23
2022-12-31T09:28:40.649Z,24.47
2022-12-31T09:31:16.162Z,26.33
2022-12-31T09:33:52.803Z,29.13
2022-12-31T09:36:30.662Z,27.33
2022-12-31T09:39:08.662Z,25.50
2022-12-31T09:42:04.237Z,27.63
2022-12-31T09:45:07.976Z,28.20
2022-12-31T09:48:08.415Z,27.20
2022-12-31T09:50:58.831Z,29.13
2022-12-31T09:53:53.082Z,29.87
2022-12-31T09:56:30.245Z,29.07
2022-12-31T09:59:04.374Z,33.77
2022-12-31T10:01:49.867Z,30.07
2022-12-31T10:04:42.682Z,33.73
2022-12-31T10:07:29.703Z,33.83
2022-12-31T10:10:08.681Z,28.30
2022-12-31T10:13:20.304Z,28.70
2022-12-31T10:16:11.062Z,23.50
2022-12-31T10:18:56.852Z,18.63
2022-12-31T10:21:37.229Z,19.40
2022-12-31T10:24:39.436Z,31.50
2022-12-31T10:27:32.582Z,25.00
2022-12-31T10:30:12.746Z,22.43
2022-12-31T10:32:45.877Z,22.13
2022-12-31T10:35:24.205Z,20.10
2022-12-31T10:37:59.126Z,20.80
2022-12-31T10:40:44.147Z,22.70
2022-12-31T10:43:48.983Z,23.23
2022-12-31T10:46:59.302Z,21.40
2022-12-31T10:49:57.434Z,22.63
2022-12-31T10:53:00.916Z,22.20
2022-12-31T10:56:01.985Z,21.37
2022-12-31T10:59:01.476Z,22.30
2022-12-31T11:01:42.070Z,21.77
2022-12-31T11:04:48.824Z,21.50
2022-12-31T11:07:54.764Z,25.50
2022-12-31T11:10:53.572Z,20.83
2022-12-31T11:13:46.774Z,21.53
2022-12-31T11:16:29.443Z,21.20
2022-12-31T11:19:03.245Z,22.73
2022-12-31T11:21:48.823Z,22.53
2022-12-31T11:24:29.754Z,22.73
2022-12-31T11:27:11.902Z,21.90
2022-12-31T11:29:57.059Z,24.63
2022-12-31T11:32:44.667Z,23.57
2022-12-31T11:35:37.292Z,22.07
2022-12-31T11:38:16.769Z,24.20
2022-12-31T11:40:57.937Z,22.37
2022-12-31T11:43:35.792Z,25.00
2022-12-31T11:46:30.524Z,26.60
2022-12-31T11:49:12.404Z,26.33
2022-12-31T11:52:08.066Z,27.17
2022-12-31T11:55:14.183Z,28.83
2022-12-31T11:57:46.211Z,27.60
2022-12-31T12:00:20.593Z,29.13
2022-12-31T12:02:51.568Z,27.43
2022-12-31T12:05:22.759Z,27.57
2022-12-31T12:07:52.733Z,32.83
2022-12-31T12:10:33.576Z,28.83
2022-12-31T12:13:14.493Z,30.37
2022-12-31T12:15:48.420Z,30.77
2022-12-31T12:18:27.438Z,31.43
2022-12-31T12:21:04.943Z,33.57
2022-12-31T12:23:33.571Z,31.27
2022-12-31T12:26:02.283Z,31.27
2022-12-31T12:28:44.290Z,32.20
2022-12-31T12:31:21.945Z,33.47
2022-12-31T12:33:51.944Z,35.50
2022-12-31T12:36:22.397Z,33.70
2022-12-31T12:39:02.429Z,34.17
2022-12-31T12:41:31.135Z,33.33
2022-12-31T12:44:07.492Z,34.27
2022-12-31T12:46:48.303Z,30.80
2022-12-31T12:49:25.441Z,33.07
2022-12-31T12:52:30.841Z,32.27
2022-12-31T12:55:11.946Z,34.23
2022-12-31T12:57:47.755Z,34.93
2022-12-31T13:00:21.643Z,32.90
2022-12-31T13:03:22.683Z,35.13
2022-12-31T13:06:06.741Z,34.77
2022-12-31T13:08:53.882Z,33.27
2022-12-31T13:11:37.063Z,35.37
2022-12-31T13:14:16.345Z,31.83
2022-12-31T13:16:51.611Z,36.20
2022-12-31T13:19:31.802Z,32.30
2022-12-31T13:22:06.438Z,33.33
2022-12-31T13:24:47.049Z,33.27
2022-12-31T13:27:20.427Z,34.80
2022-12-31T13:29:50.383Z,32.73
2022-12-31T13:32:23.425Z,33.60
2022-12-31T13:34:59.252Z,32.73
2022-12-31T13:37:33.411Z,34.67
2022-12-31T13:40:06.411Z,36.47
2022-12-31T13:42:43.844Z,36.37
2022-12-31T13:45:17.981Z,35.97
2022-12-31T13:47:49.766Z,34.83
2022-12-31T13:50:26.467Z,34.07
2022-12-31T13:52:59.727Z,40.87
2022-12-31T13:55:33.574Z,38.83
2022-12-31T13:58:12.156Z,38.90
2022-12-31T14:00:46.051Z,40.10
2022-12-31T14:03:23.450Z,40.33
2022-12-31T14:05:58.983Z,41.67
2022-12-31T14:08:27.811Z,41.73
2022-12-31T14:11:06.833Z,40.40
2022-12-31T14:13:51.199Z,39.80
2022-12-31T14:16:27.455Z,38.27
2022-12-31T14:19:03.880Z,42.47
2022-12-31T14:21:42.964Z,38.37
2022-12-31T14:24:15.394Z,39.03
2022-12-31T14:26:47.679Z,40.60
2022-12-31T14:29:25.882Z,37.73
2022-12-31T14:32:26.392Z,41.63
2022-12-31T14:35:02.591Z,37.63
2022-12-31T14:37:41.019Z,37.47
2022-12-31T14:40:21.730Z,37.90
2022-12-31T14:43:01.393Z,37.57
2022-12-31T14:45:45.213Z,39.23
2022-12-31T14:48:27.006Z,39.03
2022-12-31T14:50:56.221Z,43.53
2022-12-31T14:53:27.799Z,87.37
2022-12-31T14:56:01.520Z,73.13
2022-12-31T14:58:36.157Z,73.63
2022-12-31T15:01:08.984Z,51.83
2022-12-31T15:03:45.326Z,38.93
2022-12-31T15:06:32.453Z,37.87
2022-12-31T15:09:14.729Z,38.77
2022-12-31T15:12:04.644Z,42.00
2022-12-31T15:15:00.129Z,41.70
2022-12-31T15:17:42.133Z,42.07
2022-12-31T15:20:29.915Z,44.07
2022-12-31T15:22:58.667Z,43.70
2022-12-31T15:25:35.386Z,44.67
2022-12-31T15:28:23.148Z,45.60
2022-12-31T15:30:52.338Z,44.60
2022-12-31T15:33:30.911Z,52.77
2022-12-31T15:36:11.767Z,48.37
2022-12-31T15:38:42.358Z,50.77
2022-12-31T15:41:28.678Z,47.53
2022-12-31T15:44:02.320Z,54.13
2022-12-31T15:46:34.831Z,54.53
2022-12-31T15:49:11.856Z,52.07
2022-12-31T15:51:48.356Z,59.90
2022-12-31T15:54:25.747Z,57.40
2022-12-31T15:56:56.097Z,56.63
2022-12-31T15:59:26.247Z,54.13
2022-12-31T16:01:57.442Z,54.67
2022-12-31T16:04:28.527Z,52.90
2022-12-31T16:07:01.544Z,55.23
2022-12-31T16:09:34.203Z,58.03
2022-12-31T16:12:12.229Z,55.23
2022-12-31T16:14:44.259Z,59.50
2022-12-31T16:17:31.188Z,83.00
2022-12-31T16:20:00.675Z,61.70
2022-12-31T16:22:31.115Z,69.23
2022-12-31T16:27:53.585Z,100.90
2022-12-31T16:30:23.853Z,97.97
2022-12-31T16:32:54.215Z,85.80
2022-12-31T16:35:25.749Z,78.17
2022-12-31T16:38:15.990Z,65.67
2022-12-31T16:40:47.721Z,77.53
2022-12-31T16:43:32.029Z,75.20
2022-12-31T16:46:10.309Z,144.90
2022-12-31T16:48:39.397Z,132.43
2022-12-31T16:51:08.304Z,132.80
2022-12-31T16:53:39.115Z,106.80
2022-12-31T16:56:10.289Z,83.83
2022-12-31T16:58:45.264Z,77.30
2022-12-31T17:01:19.034Z,95.83
2022-12-31T17:03:56.768Z,97.57
2022-12-31T17:06:25.799Z,97.27
2022-12-31T17:09:08.310Z,96.20
2022-12-31T17:11:39.440Z,111.53
2022-12-31T17:14:17.037Z,109.73
2022-12-31T17:17:03.648Z,98.43
2022-12-31T17:19:45.005Z,85.23
2022-12-31T17:22:22.824Z,85.60
2022-12-31T17:25:00.945Z,82.43
2022-12-31T17:27:29.799Z,83.67
2022-12-31T17:30:21.700Z,81.90
2022-12-31T17:32:51.880Z,74.80
2022-12-31T17:35:31.015Z,69.73
2022-12-31T17:38:35.587Z,71.53
2022-12-31T17:41:15.296Z,72.07
2022-12-31T17:43:44.045Z,71.30
2022-12-31T17:46:16.188Z,76.90
2022-12-31T17:48:46.234Z,70.50
2022-12-31T17:51:14.791Z,69.50
2022-12-31T17:53:43.710Z,74.90
2022-12-31T17:56:18.603Z,74.63
2022-12-31T17:58:50.684Z,114.70
2022-12-31T18:01:23.003Z,131.63
2022-12-31T18:03:51.704Z,101.90
2022-12-31T18:06:20.458Z,117.33
2022-12-31T18:08:49.102Z,94.87
2022-12-31T18:11:19.719Z,87.50
2022-12-31T18:13:48.507Z,84.50
2022-12-31T18:16:17.232Z,84.63
2022-12-31T18:18:47.219Z,82.63
2022-12-31T18:21:21.240Z,86.70
2022-12-31T18:23:50.314Z,83.13
2022-12-31T18:26:20.754Z,87.70
2022-12-31T18:28:49.945Z,86.40
2022-12-31T18:31:20.887Z,84.27
2022-12-31T18:33:52.337Z,105.57
2022-12-31T18:36:22.323Z,99.00
2022-12-31T18:38:51.147Z,94.03
2022-12-31T18:41:22.184Z,83.77
2022-12-31T18:43:51.277Z,92.07
2022-12-31T18:46:21.364Z,86.17
2022-12-31T18:48:51.445Z,89.20
2022-12-31T18:51:26.486Z,92.17
2022-12-31T18:53:59.944Z,86.90
2022-12-31T18:56:28.922Z,82.27
2022-12-31T18:58:57.455Z,85.10
2022-12-31T19:01:28.582Z,85.83
2022-12-31T19:04:01.392Z,91.97
2022-12-31T19:06:31.949Z,90.83
2022-12-31T19:09:01.223Z,86.17
2022-12-31T19:11:30.034Z,91.73
2022-12-31T19:13:58.537Z,89.57
2022-12-31T19:16:27.131Z,86.40
2022-12-31T19:18:56.019Z,94.07
2022-12-31T19:21:25.951Z,94.57
2022-12-31T19:23:55.806Z,87.33
2022-12-31T19:26:24.436Z,88.33
2022-12-31T19:28:52.957Z,89.40
2022-12-31T19:31:21.603Z,83.10
2022-12-31T19:33:50.257Z,83.50
2022-12-31T19:36:20.481Z,84.83
2022-12-31T19:38:50.550Z,87.07
2022-12-31T19:41:21.016Z,100.83
2022-12-31T19:43:50.717Z,98.10
2022-12-31T19:46:20.681Z,91.67
2022-12-31T19:48:49.906Z,87.77
2022-12-31T19:51:20.371Z,94.00
2022-12-31T19:53:50.985Z,92.33
2022-12-31T19:56:21.355Z,105.47
2022-12-31T19:58:52.323Z,102.87
2022-12-31T20:01:25.020Z,106.93
2022-12-31T20:03:57.364Z,107.33
2022-12-31T20:06:26.587Z,94.73
2022-12-31T20:08:56.473Z,128.03
2022-12-31T20:11:25.789Z,162.23
2022-12-31T20:13:54.965Z,179.83
2022-12-31T20:16:27.080Z,177.07
2022-12-31T20:18:55.668Z,205.17
2022-12-31T20:21:26.745Z,176.83
2022-12-31T20:23:57.416Z,100.33
2022-12-31T20:26:27.522Z,85.07
2022-12-31T20:28:56.065Z,80.00
2022-12-31T20:31:26.405Z,85.13
2022-12-31T20:33:55.394Z,84.77
2022-12-31T20:36:24.608Z,85.20
2022-12-31T20:38:53.154Z,81.00
2022-12-31T20:41:24.983Z,77.57
2022-12-31T20:43:53.494Z,79.73
2022-12-31T20:46:25.635Z,80.77
2022-12-31T20:48:55.535Z,85.40
2022-12-31T20:51:25.535Z,76.70
2022-12-31T20:53:56.364Z,78.10
2022-12-31T20:56:29.754Z,80.40
2022-12-31T20:58:58.388Z,83.87
2022-12-31T21:01:36.416Z,86.93
2022-12-31T21:04:16.175Z,91.80
2022-12-31T21:06:44.983Z,87.40
2022-12-31T21:09:14.087Z,90.47
2022-12-31T21:12:01.681Z,75.67
2022-12-31T21:14:30.291Z,68.73
2022-12-31T21:16:58.866Z,79.63
2022-12-31T21:19:27.326Z,81.53
2022-12-31T21:21:55.868Z,76.00
2022-12-31T21:24:24.505Z,70.47
2022-12-31T21:26:56.447Z,73.63
2022-12-31T21:29:26.245Z,77.40
2022-12-31T21:31:57.387Z,73.27
2022-12-31T21:34:25.916Z,81.43
2022-12-31T21:36:54.453Z,143.43
2022-12-31T21:39:22.976Z,88.67
2022-12-31T21:41:54.070Z,73.07
2022-12-31T21:44:25.865Z,74.73
2022-12-31T21:49:45.831Z,71.67
2022-12-31T21:52:30.782Z,69.73
2022-12-31T21:55:19.439Z,58.93
2022-12-31T22:00:57.057Z,135.40
2022-12-31T22:03:27.640Z,69.33
2022-12-31T22:05:59.130Z,65.63
2022-12-31T22:08:28.917Z,64.67
2022-12-31T22:10:57.434Z,59.20
2022-12-31T22:13:26.015Z,63.30
2022-12-31T22:16:03.828Z,58.03
2022-12-31T22:18:34.546Z,55.37
2022-12-31T22:21:04.446Z,57.13
2022-12-31T22:23:34.478Z,53.83
2022-12-31T22:26:03.872Z,59.17
2022-12-31T22:28:40.403Z,60.63
2022-12-31T22:31:13.831Z,61.03
2022-12-31T22:33:42.728Z,57.43
2022-12-31T22:36:14.212Z,58.37
2022-12-31T22:38:42.941Z,60.13
2022-12-31T22:41:13.682Z,55.50
2022-12-31T22:43:43.546Z,60.33
2022-12-31T22:46:15.651Z,54.63
2022-12-31T22:48:44.219Z,59.10
2022-12-31T22:51:13.541Z,56.03
2022-12-31T22:53:43.620Z,57.33
2022-12-31T22:56:14.177Z,55.63
2022-12-31T22:58:42.947Z,59.33
2022-12-31T23:01:18.984Z,59.00
2022-12-31T23:03:47.995Z,63.33
2022-12-31T23:06:17.156Z,55.90
2022-12-31T23:09:05.978Z,60.53
2022-12-31T23:11:34.856Z,269.07
2022-12-31T23:14:21.263Z,536.20
2022-12-31T23:17:30.459Z,612.87
2022-12-31T23:20:15.459Z,628.57
2022-12-31T23:23:01.122Z,403.47
2022-12-31T23:25:32.000Z,184.77
2022-12-31T23:28:00.621Z,234.70
2022-12-31T23:30:29.171Z,247.00
2022-12-31T23:32:59.086Z,227.33
2022-12-31T23:35:28.452Z,243.47
2022-12-31T23:37:57.008Z,210.40
2022-12-31T23:40:34.319Z,185.47
2022-12-31T23:43:04.469Z,137.10
2022-12-31T23:45:33.821Z,215.87
2022-12-31T23:48:04.283Z,175.00
2022-12-31T23:50:33.061Z,123.17
2022-12-31T23:53:01.551Z,141.37
2022-12-31T23:55:30.097Z,164.23
2022-12-31T23:57:58.639Z,152.80
